Time;durP1;ratioP1;P1;durP2;ratioP2;P2;SDS_P1;SDS_P2;PMS_P1;PMS_P2;Temp;Humidity;BMP_temperature;BMP_pressure;BME280_temperature;BME280_humidity;BME280_pressure;Samples;Min_cycle;Max_cycle;Signal;HPM_P1;HPM_P2
2023/06/23 00:00:22;;;;;;;51.90;14.27;;;;;;;;;;5013854;28;20522;-69
2023/06/23 00:02:49;;;;;;;27.75;6.10;;;;;;;;;;5013668;28;20420;-70
2023/06/23 00:05:15;;;;;;;10.90;3.92;;;;;;;;;;5013676;28;20034;-70
2023/06/23 00:07:41;;;;;;;8.38;3.97;;;;;;;;;;5013253;28;20038;-69
2023/06/23 00:10:10;;;;;;;9.32;4.20;;;;;;;;;;4996024;28;20025;-70
2023/06/23 00:12:37;;;;;;;12.82;4.40;;;;;;;;;;5013668;28;20022;-70
2023/06/23 00:15:04;;;;;;;11.05;5.03;;;;;;;;;;5013508;28;20460;-70
2023/06/23 00:17:31;;;;;;;9.40;3.78;;;;;;;;;;5013273;28;20459;-70
2023/06/23 00:19:57;;;;;;;12.27;4.60;;;;;;;;;;5013328;28;20025;-70
2023/06/23 00:22:23;;;;;;;9.95;4.85;;;;;;;;;;5013367;28;20041;-70
2023/06/23 00:24:49;;;;;;;11.05;4.38;;;;;;;;;;5013258;28;20041;-70
2023/06/23 00:27:15;;;;;;;9.52;4.38;;;;;;;;;;5013058;28;20563;-69
2023/06/23 00:29:41;;;;;;;10.23;4.07;;;;;;;;;;5013225;28;20069;-70
2023/06/23 00:32:08;;;;;;;6.75;3.65;;;;;;;;;;4995594;28;20030;-70
2023/06/23 00:34:34;;;;;;;10.20;3.65;;;;;;;;;;5012958;28;20037;-70
2023/06/23 00:36:59;;;;;;;6.63;3.00;;;;;;;;;;5013153;28;20018;-69
2023/06/23 00:39:26;;;;;;;4.43;2.90;;;;;;;;;;5013265;28;20402;-70
2023/06/23 00:41:53;;;;;;;6.78;3.50;;;;;;;;;;5013026;28;20022;-70
2023/06/23 00:44:19;;;;;;;3.78;2.90;;;;;;;;;;5013027;28;20022;-70
2023/06/23 00:46:46;;;;;;;11.77;3.58;;;;;;;;;;5012935;28;20076;-69
2023/06/23 00:49:15;;;;;;;4.15;2.50;;;;;;;;;;4995037;28;20057;-69
2023/06/23 00:51:41;;;;;;;4.78;3.05;;;;;;;;;;5012813;28;20030;-70
2023/06/23 00:54:08;;;;;;;5.65;3.22;;;;;;;;;;5012750;28;20034;-70
2023/06/23 00:56:34;;;;;;;7.07;4.35;;;;;;;;;;5012680;28;20476;-69
2023/06/23 00:59:00;;;;;;;9.23;4.65;;;;;;;;;;5012563;28;20061;-70
2023/06/23 01:01:26;;;;;;;10.15;5.57;;;;;;;;;;5012637;28;20042;-69
2023/06/23 01:03:57;;;;;;;4.80;3.65;;;;;;;;;;5012293;28;20090;-70
2023/06/23 01:06:26;;;;;;;7.75;4.32;;;;;;;;;;5012748;28;20076;-70
2023/06/23 01:09:21;;;;;;;14.27;5.03;;;;;;;;;;5011688;28;20083;-70
2023/06/23 01:12:01;;;;;;;9.85;4.85;;;;;;;;;;4995341;28;20038;-70
2023/06/23 01:14:35;;;;;;;8.07;4.75;;;;;;;;;;4988363;28;20197;-69
2023/06/23 01:17:06;;;;;;;5.22;3.80;;;;;;;;;;4992308;28;20034;-69
2023/06/23 01:19:32;;;;;;;;;;;;;;;;;;4993192;28;20515;-70
2023/06/23 01:22:01;;;;;;;8.07;4.07;;;;;;;;;;4992818;28;19918;-69
2023/06/23 01:24:42;;;;;;;5.32;3.40;;;;;;;;;;4992545;28;20445;-69
2023/06/23 01:27:28;;;;;;;6.20;4.60;;;;;;;;;;4992527;28;20113;-68
2023/06/23 01:29:55;;;;;;;5.65;4.40;;;;;;;;;;4991137;28;20152;-68
2023/06/23 01:32:26;;;;;;;5.55;4.10;;;;;;;;;;4994239;28;20103;-69
2023/06/23 01:34:54;;;;;;;6.22;4.10;;;;;;;;;;5011599;28;20028;-69
2023/06/23 01:37:24;;;;;;;8.55;5.22;;;;;;;;;;5011857;28;20436;-69
2023/06/23 01:40:19;;;;;;;5.13;4.05;;;;;;;;;;5011891;28;20046;-69
2023/06/23 01:42:56;;;;;;;8.60;5.07;;;;;;;;;;4999409;28;20038;-69
2023/06/23 01:45:24;;;;;;;5.22;4.05;;;;;;;;;;4994402;28;20030;-70
2023/06/23 01:47:50;;;;;;;4.55;3.13;;;;;;;;;;5011944;28;20029;-70
2023/06/23 01:50:18;;;;;;;8.32;4.47;;;;;;;;;;5011914;28;20540;-69
2023/06/23 01:52:45;;;;;;;5.78;4.57;;;;;;;;;;5012118;28;20101;-70
2023/06/23 01:55:12;;;;;;;6.65;4.43;;;;;;;;;;5011865;28;20062;-70
2023/06/23 01:57:39;;;;;;;6.25;3.80;;;;;;;;;;5011915;28;20045;-70
2023/06/23 02:00:11;;;;;;;5.00;4.40;;;;;;;;;;5011925;28;20538;-70
2023/06/23 02:02:36;;;;;;;;;;;;;;;;;;5012490;28;20520;-70
2023/06/23 02:05:03;;;;;;;4.85;3.60;;;;;;;;;;5012987;28;20005;-70
2023/06/23 02:07:30;;;;;;;4.47;3.47;;;;;;;;;;4994016;28;20033;-70
2023/06/23 02:09:57;;;;;;;8.30;3.53;;;;;;;;;;5011771;28;20077;-70
2023/06/23 02:12:23;;;;;;;3.60;3.17;;;;;;;;;;5011731;28;20037;-70
2023/06/23 02:14:51;;;;;;;7.03;3.55;;;;;;;;;;5011768;28;20029;-70
2023/06/23 02:17:18;;;;;;;4.10;3.05;;;;;;;;;;5011538;28;20026;-70
2023/06/23 02:19:45;;;;;;;4.25;3.00;;;;;;;;;;5014331;28;20076;-70
2023/06/23 02:22:14;;;;;;;4.88;3.25;;;;;;;;;;5015730;28;20057;-70
2023/06/23 02:24:41;;;;;;;2.50;2.30;;;;;;;;;;5015511;28;20033;-70
2023/06/23 02:27:07;;;;;;;3.22;2.90;;;;;;;;;;4997899;28;20034;-68
2023/06/23 02:29:35;;;;;;;4.30;3.22;;;;;;;;;;5015511;28;20038;-69
2023/06/23 02:32:01;;;;;;;3.70;3.08;;;;;;;;;;5015386;28;20034;-69
2023/06/23 02:34:27;;;;;;;3.30;2.80;;;;;;;;;;5015448;28;20404;-69
2023/06/23 02:36:55;;;;;;;4.80;2.88;;;;;;;;;;5015251;28;20014;-69
2023/06/23 02:39:22;;;;;;;5.13;3.08;;;;;;;;;;4997533;28;20018;-69
2023/06/23 02:41:52;;;;;;;4.78;3.20;;;;;;;;;;5015216;28;20463;-69
2023/06/23 02:44:21;;;;;;;4.07;3.17;;;;;;;;;;4997616;28;20037;-69
2023/06/23 02:46:52;;;;;;;4.28;2.92;;;;;;;;;;5015231;28;20550;-69
2023/06/23 02:49:22;;;;;;;3.97;3.00;;;;;;;;;;5015155;28;20037;-69
2023/06/23 02:51:50;;;;;;;6.90;3.30;;;;;;;;;;4997757;28;20504;-70
2023/06/23 02:54:17;;;;;;;9.60;3.67;;;;;;;;;;5014839;28;20037;-70
2023/06/23 02:56:44;;;;;;;4.68;3.30;;;;;;;;;;5015072;28;20022;-69
2023/06/23 02:59:20;;;;;;;4.50;3.22;;;;;;;;;;5014759;28;20434;-69
2023/06/23 03:01:48;;;;;;;7.25;3.00;;;;;;;;;;5014878;28;20029;-70
2023/06/23 03:04:16;;;;;;;4.10;2.65;;;;;;;;;;5014808;28;20030;-70
2023/06/23 03:06:43;;;;;;;6.00;2.72;;;;;;;;;;5014704;28;20030;-70
2023/06/23 03:09:10;;;;;;;5.18;3.85;;;;;;;;;;5014686;28;20084;-70
2023/06/23 03:11:36;;;;;;;9.07;4.50;;;;;;;;;;5014678;28;20502;-70
2023/06/23 03:14:03;;;;;;;10.25;6.53;;;;;;;;;;5014577;28;20049;-70
2023/06/23 03:16:43;;;;;;;33.85;22.52;;;;;;;;;;5014663;28;20030;-70
2023/06/23 03:19:12;;;;;;;60.20;32.13;;;;;;;;;;5014394;28;20080;-70
2023/06/23 03:21:39;;;;;;;11.60;6.70;;;;;;;;;;5014613;28;20060;-70
2023/06/23 03:24:07;;;;;;;5.78;3.15;;;;;;;;;;5014298;28;20757;-70
2023/06/23 03:26:36;;;;;;;18.45;8.52;;;;;;;;;;5014722;28;20054;-70
2023/06/23 03:29:03;;;;;;;15.60;7.82;;;;;;;;;;4996543;28;20030;-71
2023/06/23 03:31:29;;;;;;;17.20;8.15;;;;;;;;;;5013423;28;20084;-70
2023/06/23 03:33:56;;;;;;;7.88;4.53;;;;;;;;;;5014090;28;20463;-70
2023/06/23 03:36:26;;;;;;;5.40;4.15;;;;;;;;;;5014481;28;20018;-70
2023/06/23 03:39:00;;;;;;;4.07;3.47;;;;;;;;;;4996330;28;20032;-70
2023/06/23 03:41:28;;;;;;;6.15;4.10;;;;;;;;;;5014204;28;20030;-70
2023/06/23 03:43:59;;;;;;;4.63;4.18;;;;;;;;;;5013947;28;20033;-70
2023/06/23 03:46:27;;;;;;;4.60;4.20;;;;;;;;;;5014307;28;20030;-70
2023/06/23 03:48:56;;;;;;;5.35;3.90;;;;;;;;;;5013751;28;20097;-70
2023/06/23 03:51:23;;;;;;;4.90;4.00;;;;;;;;;;5014105;28;20032;-71
2023/06/23 03:53:50;;;;;;;5.88;4.10;;;;;;;;;;5013708;28;20415;-70
2023/06/23 03:56:16;;;;;;;7.95;4.45;;;;;;;;;;5013899;28;20022;-70
2023/06/23 03:58:43;;;;;;;5.38;4.13;;;;;;;;;;4995774;28;20040;-70
2023/06/23 04:01:10;;;;;;;4.53;3.60;;;;;;;;;;5013954;28;20030;-70
2023/06/23 04:03:37;;;;;;;6.13;4.20;;;;;;;;;;5013700;28;20021;-70
2023/06/23 04:06:05;;;;;;;6.80;3.80;;;;;;;;;;5013786;28;20095;-70
2023/06/23 04:08:32;;;;;;;4.63;4.18;;;;;;;;;;5013350;28;20034;-70
2023/06/23 04:10:59;;;;;;;3.88;3.35;;;;;;;;;;4995953;28;20080;-70
2023/06/23 04:13:29;;;;;;;6.53;3.80;;;;;;;;;;5013447;28;20029;-70
2023/06/23 04:15:56;;;;;;;4.13;3.50;;;;;;;;;;5013402;28;20026;-71
2023/06/23 04:18:24;;;;;;;3.30;2.78;;;;;;;;;;5013751;28;20030;-70
2023/06/23 04:20:51;;;;;;;5.22;3.20;;;;;;;;;;5013294;28;20067;-70
2023/06/23 04:23:18;;;;;;;3.83;3.20;;;;;;;;;;5013295;28;20037;-69
2023/06/23 04:25:48;;;;;;;5.45;3.72;;;;;;;;;;4992613;28;20034;-70
2023/06/23 04:28:16;;;;;;;4.63;3.75;;;;;;;;;;5012302;28;20165;-70
2023/06/23 04:30:42;;;;;;;4.63;3.90;;;;;;;;;;5013070;28;20391;-72
2023/06/23 04:33:09;;;;;;;5.80;4.57;;;;;;;;;;5013203;28;20053;-70
2023/06/23 04:35:35;;;;;;;10.85;5.05;;;;;;;;;;5013197;28;20554;-70
2023/06/23 04:38:03;;;;;;;6.72;6.07;;;;;;;;;;5009592;28;20022;-69
2023/06/23 04:40:39;;;;;;;7.22;5.40;;;;;;;;;;5011199;28;20026;-71
2023/06/23 04:43:13;;;;;;;5.20;4.72;;;;;;;;;;4995129;28;20813;-71
2023/06/23 04:45:46;;;;;;;6.68;5.93;;;;;;;;;;5013026;28;20033;-71
2023/06/23 04:48:13;;;;;;;6.63;5.93;;;;;;;;;;5012814;28;20044;-72
2023/06/23 04:50:40;;;;;;;7.63;5.32;;;;;;;;;;5012647;28;20547;-71
2023/06/23 04:53:13;;;;;;;6.32;4.80;;;21.40;90.50;;;;;;5012769;28;20034;-72
2023/06/23 04:55:40;;;;;;;6.68;4.38;;;21.50;90.70;;;;;;5012588;28;20034;-71
2023/06/23 04:58:08;;;;;;;4.22;3.83;;;22.00;90.30;;;;;;4994921;28;20117;-72
2023/06/23 05:00:35;;;;;;;6.97;3.65;;;21.70;88.30;;;;;;5012685;28;20029;-72
2023/06/23 05:03:02;;;;;;;9.68;4.60;;;21.80;88.30;;;;;;5012345;28;20030;-72
2023/06/23 05:05:30;;;;;;;5.25;3.67;;;21.80;87.60;;;;;;4994807;28;20064;-72
2023/06/23 05:07:58;;;;;;;6.45;3.38;;;22.00;88.70;;;;;;5012413;28;20029;-72
2023/06/23 05:10:26;;;;;;;4.68;2.85;;;22.40;87.90;;;;;;4994650;28;20026;-72
2023/06/23 05:12:54;;;;;;;4.30;2.47;;;23.00;85.30;;;;;;5012131;28;20040;-72
2023/06/23 05:15:21;;;;;;;5.85;2.00;;;23.70;80.30;;;;;;5011977;28;20026;-72
2023/06/23 05:17:55;;;;;;;2.97;2.03;;;23.50;80.10;;;;;;5011998;28;20033;-72
2023/06/23 05:20:22;;;;;;;8.15;2.10;;;23.30;82.60;;;;;;4992903;28;20041;-73
2023/06/23 05:22:50;;;;;;;5.85;1.95;;;23.40;83.70;;;;;;4995056;28;20036;-72
2023/06/23 05:25:18;;;;;;;4.00;2.22;;;24.00;83.00;;;;;;4992557;28;20401;-73
2023/06/23 05:27:45;;;;;;;6.18;1.98;;;23.70;80.20;;;;;;4992365;28;20026;-72
2023/06/23 05:30:16;;;;;;;7.35;2.60;;;23.60;81.70;;;;;;4992337;28;20030;-73
2023/06/23 05:32:42;;;;;;;7.82;2.33;;;23.70;81.80;;;;;;4992376;28;20068;-73
2023/06/23 05:35:10;;;;;;;6.32;2.40;;;24.60;78.10;;;;;;4992521;28;20089;-73
2023/06/23 05:37:38;;;;;;;6.13;2.65;;;25.00;78.30;;;;;;4989355;28;20034;-73
2023/06/23 05:40:06;;;;;;;7.13;2.28;;;25.40;76.10;;;;;;5006178;28;20116;-73
2023/06/23 05:42:32;;;;;;;5.93;2.15;;;;;;;;;;4993869;28;20022;-73
2023/06/23 05:45:00;;;;;;;4.20;2.38;;;24.90;73.90;;;;;;5011274;28;20514;-72
2023/06/23 05:47:34;;;;;;;2.60;2.20;;;24.40;76.20;;;;;;4992938;28;20033;-72
2023/06/23 05:50:01;;;;;;;7.03;2.40;;;24.30;77.10;;;;;;5010334;28;20424;-73
2023/06/23 05:52:33;;;;;;;5.15;1.85;;;24.50;78.40;;;;;;5011876;28;20087;-74
2023/06/23 05:55:02;;;;;;;3.88;2.05;;;25.60;78.50;;;;;;5010948;28;20033;-73
2023/06/23 05:57:31;;;;;;;4.45;1.92;;;27.10;72.50;;;;;;5011291;28;20022;-72
2023/06/23 06:00:06;;;;;;;6.50;1.90;;;27.90;69.70;;;;;;5011654;28;20026;-73
2023/06/23 06:02:34;;;;;;;4.13;2.13;;;27.50;66.80;;;;;;5011466;28;20030;-72
2023/06/23 06:05:05;;;;;;;8.30;2.75;;;26.70;67.40;;;;;;5010915;28;20430;-72
2023/06/23 06:07:32;;;;;;;4.10;2.35;;;26.50;70.40;;;;;;4993153;28;20029;-73
2023/06/23 06:10:00;;;;;;;4.35;2.08;;;;;;;;;;5011324;28;20057;-72
2023/06/23 06:12:28;;;;;;;6.28;2.40;;;29.30;64.20;;;;;;5011322;28;20030;-73
2023/06/23 06:14:57;;;;;;;3.28;1.77;;;29.90;58.50;;;;;;5010756;28;20451;-72
2023/06/23 06:17:24;;;;;;;8.48;2.80;;;30.30;58.20;;;;;;5010587;28;20373;-72
2023/06/23 06:19:51;;;;;;;13.60;2.85;;;29.80;58.90;;;;;;5030295;28;20029;-72
2023/06/23 06:22:18;;;;;;;7.57;1.98;;;30.00;58.60;;;;;;5015031;28;20026;-73
2023/06/23 06:24:45;;;;;;;7.40;2.15;;;30.70;57.90;;;;;;5011041;28;20440;-73
2023/06/23 06:27:14;;;;;;;4.93;2.25;;;31.90;51.90;;;;;;5010342;28;20038;-72
2023/06/23 06:29:42;;;;;;;5.30;1.85;;;32.20;53.50;;;;;;5010773;28;20399;-72
2023/06/23 06:32:08;;;;;;;5.35;2.05;;;33.60;47.80;;;;;;4993441;28;20032;-73
2023/06/23 06:34:34;;;;;;;8.82;2.05;;;;;;;;;;5009677;28;20054;-73
2023/06/23 06:37:01;;;;;;;9.13;2.60;;;;;;;;;;5011072;28;20049;-73
2023/06/23 06:39:30;;;;;;;3.72;2.20;;;;;;;;;;5010645;28;20022;-73
2023/06/23 06:41:57;;;;;;;5.13;2.50;;;;;;;;;;4994186;28;20037;-75
2023/06/23 06:44:24;;;;;;;6.03;2.08;;;;;;;;;;5010853;28;20025;-74
2023/06/23 06:46:52;;;;;;;5.25;2.55;;;;;;;;;;5010765;28;20014;-73
2023/06/23 06:49:19;;;;;;;6.18;2.17;;;;;;;;;;5010106;28;20029;-73
2023/06/23 06:51:45;;;;;;;5.25;2.45;;;;;;;;;;5010673;28;20026;-73
2023/06/23 06:54:11;;;;;;;5.43;2.58;;;;;;;;;;5010806;28;20038;-74
2023/06/23 06:56:37;;;;;;;6.50;2.33;;;36.20;41.50;;;;;;5010803;28;20413;-74
2023/06/23 06:59:03;;;;;;;5.97;2.42;;;36.30;41.30;;;;;;5009673;28;20180;-74
2023/06/23 07:01:29;;;;;;;4.63;2.28;;;36.80;41.10;;;;;;5010778;28;20024;-73
2023/06/23 07:03:56;;;;;;;7.13;2.67;;;38.40;37.90;;;;;;5010653;28;20022;-75
2023/06/23 07:06:22;;;;;;;4.82;2.40;;;;;;;;;;5012458;28;20117;-73
2023/06/23 07:08:48;;;;;;;5.40;2.45;;;;;;;;;;5013565;28;20057;-74
2023/06/23 07:11:14;;;;;;;5.75;2.58;;;;;;;;;;5014152;28;20522;-72
2023/06/23 07:13:40;;;;;;;6.55;2.63;;;;;;;;;;5014052;28;20026;-73
2023/06/23 07:16:06;;;;;;;7.40;2.83;;;;;;;;;;5014078;28;20032;-71
2023/06/23 07:18:32;;;;;;;3.50;2.40;;;;;;;;;;5013341;28;20084;-72
2023/06/23 07:21:00;;;;;;;4.35;2.40;;;;;;;;;;5013711;28;20069;-72
2023/06/23 07:23:25;;;;;;;5.72;2.58;;;;;;;;;;5013282;28;20025;-72
2023/06/23 07:25:52;;;;;;;3.13;1.77;;;;;;;;;;5013311;28;20030;-72
2023/06/23 07:28:20;;;;;;;1.80;1.60;;;;;;;;;;5012165;28;20025;-72
2023/06/23 07:30:46;;;;;;;3.72;1.80;;;;;;;;;;4995628;28;20037;-73
2023/06/23 07:33:12;;;;;;;3.80;1.20;;;;;;;;;;5013517;28;20030;-71
2023/06/23 07:35:38;;;;;;;3.50;1.40;;;;;;;;;;5013674;28;20080;-72
2023/06/23 07:38:04;;;;;;;3.47;1.30;;;;;;;;;;5012726;28;20026;-71
2023/06/23 07:40:30;;;;;;;4.15;1.25;;;;;;;;;;5013639;28;20480;-72
2023/06/23 07:42:56;;;;;;;3.40;1.20;;;;;;;;;;5013723;28;20030;-72
2023/06/23 07:45:22;;;;;;;2.00;1.10;;;;;;;;;;5012161;28;20086;-73
2023/06/23 07:47:49;;;;;;;1.38;0.70;;;;;;;;;;5013035;28;20104;-72
2023/06/23 07:50:15;;;;;;;2.00;0.82;;;;;;;;;;4993923;28;20460;-72
2023/06/23 07:52:40;;;;;;;0.77;0.73;;;;;;;;;;4995121;28;20393;-72
2023/06/23 07:55:07;;;;;;;2.55;0.77;;;;;;;;;;5011013;28;20025;-71
2023/06/23 07:57:33;;;;;;;3.05;1.40;;;;;;;;;;5012100;28;20480;-71
2023/06/23 07:59:59;;;;;;;5.18;1.45;;;;;;;;;;5013078;28;20133;-72
2023/06/23 08:02:25;;;;;;;2.85;1.10;;;;;;;;;;5013137;28;20041;-73
2023/06/23 08:04:51;;;;;;;3.03;1.00;;;;;;;;;;5051544;23;20040;-78
2023/06/23 08:07:30;;;;;;;3.88;1.17;;;;;;;;;;5055490;28;20074;-77
2023/06/23 08:10:01;;;;;;;1.75;0.90;;;;;;;;;;5033717;28;20021;-78
2023/06/23 08:12:27;;;;;;;2.97;0.85;;;;;;;;;;5035611;28;20029;-78
2023/06/23 08:14:53;;;;;;;1.95;1.00;;;;;;;;;;5022495;28;20048;-77
2023/06/23 08:17:19;;;;;;;0.80;0.80;;;;;;;;;;5036068;28;20421;-78
2023/06/23 08:19:48;;;;;;;1.25;0.80;;;;;;;;;;5037055;28;20017;-78
2023/06/23 08:22:14;;;;;;;4.50;1.40;;;;;;;;;;5037394;28;20056;-78
2023/06/23 08:24:44;;;;;;;3.63;1.00;;;;;;;;;;5055042;28;20041;-78
2023/06/23 08:27:15;;;;;;;3.75;1.20;;;;;;;;;;5055897;28;20104;-79
2023/06/23 08:29:41;;;;;;;1.95;1.27;;;;;;;;;;5055496;28;20047;-78
2023/06/23 08:32:08;;;;;;;2.78;1.23;;;;;;;;;;5038277;28;20021;-79
2023/06/23 08:34:36;;;;;;;5.47;1.55;;;;;;;;;;5055083;28;20040;-77
2023/06/23 08:37:02;;;;;;;5.35;1.48;;;;;;;;;;5051989;28;20021;-77
2023/06/23 08:39:28;;;;;;;2.45;1.60;;;;;;;;;;5054765;28;20440;-77
2023/06/23 08:41:58;;;;;;;4.68;1.63;;;;;;;;;;5039533;28;20025;-78
2023/06/23 08:44:26;;;;;;;3.85;1.45;;;;;;;;;;5060100;28;20391;-78
2023/06/23 08:46:56;;;;;;;7.65;1.88;;;;;;;;;;5059965;28;20526;-78
2023/06/23 08:49:23;;;;;;;3.38;1.67;;;;;;;;;;5065630;28;20017;-78
2023/06/23 08:51:49;;;;;;;12.07;2.10;;;;;;;;;;5049512;28;20075;-78
2023/06/23 08:54:16;;;;;;;11.13;2.70;;;;;;;;;;5060181;28;20021;-77
2023/06/23 08:56:43;;;;;;;5.43;1.98;;;;;;;;;;5058973;28;20032;-77
2023/06/23 08:59:09;;;;;;;2.35;1.85;;;;;;;;;;5055618;28;20021;-77
2023/06/23 09:01:36;;;;;;;3.47;2.00;;;;;;;;;;5057147;28;20032;-77
2023/06/23 09:04:03;;;;;;;4.35;1.90;;;;;;;;;;5055950;28;20100;-76
2023/06/23 09:06:29;;;;;;;5.07;2.10;;;;;;;;;;5055039;28;20088;-77
2023/06/23 09:08:55;;;;;;;4.10;1.95;;;;;;;;;;5034394;28;20115;-77
2023/06/23 09:11:21;;;;;;;3.55;1.90;;;;;;;;;;5053562;28;20026;-77
2023/06/23 09:13:48;;;;;;;4.75;1.80;;;;;;;;;;5055542;28;20028;-77
2023/06/23 09:16:16;;;;;;;2.35;1.80;;;;;;;;;;5055814;28;20067;-77
2023/06/23 09:18:46;;;;;;;3.08;1.58;;;;;;;;;;5055078;28;20070;-77
2023/06/23 09:21:12;;;;;;;3.28;1.60;;;;;;;;;;5055308;28;20447;-77
2023/06/23 09:23:38;;;;;;;6.45;2.17;;;;;;;;;;5053130;28;20060;-77
2023/06/23 09:26:06;;;;;;;5.25;2.00;;;;;;;;;;5054997;28;20024;-77
2023/06/23 09:28:39;;;;;;;3.80;1.70;;;;;;;;;;5051929;28;20032;-77
2023/06/23 09:31:12;;;;;;;13.93;5.72;;;;;;;;;;5051873;28;20115;-76
2023/06/23 09:33:48;;;;;;;5.70;2.00;;;;;;;;;;5034586;28;20108;-78
2023/06/23 09:36:13;;;;;;;5.35;2.40;;;;;;;;;;5052157;28;20078;-77
2023/06/23 09:38:39;;;;;;;6.57;3.08;;;35.40;34.60;;;;;;5053846;28;20426;-77
2023/06/23 09:41:10;;;;;;;3.28;2.00;;;35.70;34.70;;;;;;5053655;28;20029;-77
2023/06/23 09:43:43;;;;;;;2.25;1.30;;;35.90;33.20;;;;;;5054384;28;20075;-78
2023/06/23 09:46:16;;;;;;;1.35;1.23;;;35.60;33.20;;;;;;5036372;28;20025;-78
2023/06/23 09:48:44;;;;;;;5.50;1.10;;;34.90;35.10;;;;;;5053583;28;20040;-78
2023/06/23 09:51:11;;;;;;;2.55;1.05;;;34.50;35.40;;;;;;5054089;28;20068;-77
2023/06/23 09:53:38;;;;;;;3.92;1.73;;;34.00;36.10;;;;;;5033650;28;20025;-77
2023/06/23 09:56:05;;;;;;;3.65;1.70;;;33.70;36.40;;;;;;5052609;28;20525;-77
2023/06/23 09:58:35;;;;;;;3.00;1.55;;;33.10;36.80;;;;;;5052926;28;20025;-77
2023/06/23 10:01:02;;;;;;;3.63;1.05;;;;;;;;;;5054179;28;20029;-77
2023/06/23 10:03:29;;;;;;;4.72;2.20;;;;;;;;;;5054285;28;20028;-77
2023/06/23 10:05:59;;;;;;;1.55;1.10;;;;;;;;;;5054437;28;20471;-78
2023/06/23 10:08:26;;;;;;;1.58;1.10;;;;;;;;;;5053307;28;20029;-77
2023/06/23 10:10:52;;;;;;;2.90;1.10;;;;;;;;;;5057606;28;20040;-77
2023/06/23 10:13:18;;;;;;;3.25;1.10;;;;;;;;;;5058310;28;20047;-78
2023/06/23 10:15:45;;;;;;;1.67;1.30;;;;;;;;;;5056825;28;20067;-77
2023/06/23 10:18:11;;;;;;;3.90;1.40;;;;;;;;;;5057761;28;20025;-77
2023/06/23 10:20:38;;;;;;;1.38;1.10;;;;;;;;;;5057909;28;20029;-78
2023/06/23 10:23:04;;;;;;;3.53;1.90;;;;;;;;;;5058034;28;20071;-77
2023/06/23 10:25:31;;;;;;;3.42;1.50;;;;;;;;;;5055090;28;20029;-77
2023/06/23 10:28:00;;;;;;;1.85;1.30;;;;;;;;;;5051117;28;20033;-77
2023/06/23 10:30:29;;;;;;;2.97;1.60;;;;;;;;;;5052656;28;20434;-77
2023/06/23 10:32:56;;;;;;;1.83;1.40;;;;;;;;;;5053247;28;20108;-77
2023/06/23 10:35:23;;;;;;;3.22;1.70;;;;;;;;;;5053517;28;20025;-79
2023/06/23 10:37:50;;;;;;;3.47;1.35;;;;;;;;;;5034235;28;20021;-76
2023/06/23 10:40:19;;;;;;;1.20;1.00;;;;;;;;;;5036626;28;20026;-78
2023/06/23 10:42:49;;;;;;;1.90;1.30;;;;;;;;;;5039411;28;20480;-78
2023/06/23 10:45:15;;;;;;;1.02;0.95;;;;;;;;;;5039187;28;20034;-78
2023/06/23 10:47:50;;;;;;;1.92;1.20;;;;;;;;;;5039297;28;20125;-78
2023/06/23 10:50:16;;;;;;;2.03;1.13;;;;;;;;;;5037563;28;20072;-78
2023/06/23 10:52:42;;;;;;;4.38;1.90;;;;;;;;;;5038661;28;20460;-78
2023/06/23 10:55:27;;;;;;;1.95;1.17;;;;;;;;;;5044631;28;20060;-76
2023/06/23 10:58:12;;;;;;;2.17;1.83;;;;;;;;;;5035042;28;20026;-78
2023/06/23 11:00:38;;;;;;;2.75;1.70;;;;;;;;;;5034745;28;20095;-76
2023/06/23 11:03:10;;;;;;;2.15;1.52;;;;;;;;;;5038003;28;20100;-77
2023/06/23 11:05:42;;;;;;;2.83;1.55;;;;;;;;;;5038501;28;20541;-78
2023/06/23 11:08:09;;;;;;;6.80;4.65;;;;;;;;;;5036787;28;20386;-77
2023/06/23 11:10:48;;;;;;;8.65;6.80;;;;;;;;;;5037276;28;20083;-77
2023/06/23 11:13:14;;;;;;;8.95;7.60;;;;;;;;;;5017382;28;20640;-77
2023/06/23 11:15:41;;;;;;;16.63;14.35;;;;;;;;;;5035763;28;20022;-77
2023/06/23 11:18:07;;;;;;;17.08;13.88;;;;;;;;;;5017498;28;20120;-77
2023/06/23 11:20:35;;;;;;;17.92;13.38;;;;;;;;;;5035965;28;20486;-77
2023/06/23 11:23:08;;;;;;;6.70;5.68;;;;;;;;;;5036620;28;20017;-77
2023/06/23 11:25:47;;;;;;;28.58;22.17;;;;;;;;;;5037024;28;20025;-78
2023/06/23 11:28:25;;;;;;;26.83;24.00;;;;;;;;;;5034937;28;20100;-77
2023/06/23 11:31:11;;;;;;;26.48;23.67;;;;;;;;;;5033576;28;20047;-78
2023/06/23 11:33:41;;;;;;;17.92;14.90;;;;;;;;;;5034020;28;20056;-78
2023/06/23 11:36:09;;;;;;;12.30;9.70;;;;;;;;;;5035137;28;20037;-77
2023/06/23 11:38:36;;;;;;;45.90;40.80;;;;;;;;;;5045917;28;20033;-77
2023/06/23 11:41:02;;;;;;;70.80;62.75;;;;;;;;;;5052663;28;20033;-77
2023/06/23 11:43:35;;;;;;;8.07;5.75;;;;;;;;;;5056066;28;20499;-77
2023/06/23 11:46:19;;;;;;;2.58;1.95;;;;;;;;;;5085150;22;20091;-77
2023/06/23 11:49:08;;;;;;;2.00;1.55;;;;;;;;;;5035863;28;20076;-77
2023/06/23 11:51:46;;;;;;;3.72;2.28;;;;;;;;;;5031279;28;20048;-77
2023/06/23 12:00:40;;;;;;;1.10;1.00;;;;;;;;;;5034257;28;20044;-78
2023/06/23 12:05:55;;;;;;;3.03;1.13;;;;;;;;;;5012812;28;20112;-77
2023/06/23 12:11:31;;;;;;;2.13;0.80;;;;;;;;;;4971149;28;20098;-77
2023/06/23 12:14:09;;;;;;;1.92;1.00;;;;;;;;;;5022988;28;20037;-77
2023/06/23 12:16:56;;;;;;;5.03;1.20;;;;;;;;;;5033349;28;20433;-77
2023/06/23 12:19:24;;;;;;;1.50;0.98;;;;;;;;;;5032284;28;20070;-78
2023/06/23 12:21:59;;;;;;;2.42;0.80;;;;;;;;;;5014364;28;20158;-77
2023/06/23 12:24:26;;;;;;;1.73;1.10;;;;;;;;;;5014260;28;20026;-77
2023/06/23 12:26:52;;;;;;;1.05;0.95;;;;;;;;;;5034810;28;20029;-77
2023/06/23 12:29:19;;;;;;;2.05;1.15;;;;;;;;;;5032325;28;20092;-77
2023/06/23 12:31:59;;;;;;;3.63;1.02;;;;;;;;;;5034358;28;20041;-78
2023/06/23 12:34:48;;;;;;;1.42;0.90;;;;;;;;;;5034858;28;20407;-78
2023/06/23 12:37:19;;;;;;;2.28;0.70;;;;;;;;;;5018410;28;20017;-78
2023/06/23 12:39:54;;;;;;;2.43;0.90;;;;;;;;;;5036701;28;20032;-77
2023/06/23 12:42:21;;;;;;;1.10;0.63;;;;;;;;;;5035786;28;20515;-78
2023/06/23 12:44:48;;;;;;;1.77;0.75;;;;;;;;;;5034649;28;20088;-77
2023/06/23 12:47:17;;;;;;;4.05;1.00;;;;;;;;;;5034506;28;20036;-77
2023/06/23 12:49:43;;;;;;;3.08;0.90;;;;;;;;;;5035154;28;20029;-77
2023/06/23 12:52:11;;;;;;;1.58;0.90;;;;;;;;;;5033086;28;20040;-77
2023/06/23 12:54:47;;;;;;;1.92;1.10;;;;;;;;;;5038613;28;20448;-77
2023/06/23 12:57:13;;;;;;;1.77;1.10;;;;;;;;;;5039286;28;20018;-78
2023/06/23 12:59:39;;;;;;;0.70;0.70;;;;;;;;;;5041203;28;20045;-77
2023/06/23 13:02:08;;;;;;;2.15;0.90;;;;;;;;;;5044417;28;20476;-78
2023/06/23 13:04:37;;;;;;;4.13;2.63;;;;;;;;;;5043172;28;20033;-78
2023/06/23 13:07:08;;;;;;;2.25;1.40;;;;;;;;;;5037846;28;20037;-77
2023/06/23 13:09:37;;;;;;;2.30;1.10;;;;;;;;;;5038676;28;20028;-78
2023/06/23 13:12:03;;;;;;;6.25;1.15;;;;;;;;;;5034326;28;20487;-77
2023/06/23 13:14:29;;;;;;;1.05;0.65;;;;;;;;;;5034270;28;20034;-78
2023/06/23 13:16:58;;;;;;;1.40;0.90;;;;;;;;;;5034116;28;20032;-78
2023/06/23 13:19:24;;;;;;;2.58;1.02;;;;;;;;;;5036103;28;20053;-77
2023/06/23 13:21:51;;;;;;;2.35;0.70;;;;;;;;;;5020309;28;20073;-78
2023/06/23 13:24:18;;;;;;;3.08;1.38;;;;;;;;;;5015735;28;20026;-77
2023/06/23 13:26:44;;;;;;;6.00;1.08;;;;;;;;;;5016158;28;20017;-77
2023/06/23 13:29:10;;;;;;;0.85;0.50;;;;;;;;;;4997264;28;20025;-77
2023/06/23 13:31:36;;;;;;;2.78;1.17;;;;;;;;;;5014020;28;20034;-77
2023/06/23 13:34:02;;;;;;;1.77;1.10;;;;;;;;;;5014078;28;20026;-78
2023/06/23 13:36:28;;;;;;;1.70;0.93;;;;;;;;;;5033273;28;20018;-78
2023/06/23 13:38:55;;;;;;;19.73;15.07;;;;;;;;;;5034133;28;20021;-77
2023/06/23 13:41:21;;;;;;;3.95;1.10;;;;;;;;;;5018559;28;20025;-78
2023/06/23 13:43:47;;;;;;;1.65;0.70;;;;;;;;;;5018242;28;20045;-78
2023/06/23 13:46:13;;;;;;;0.90;0.70;;;;;;;;;;5035663;28;20526;-78
2023/06/23 13:48:39;;;;;;;1.33;0.80;;;;;;;;;;5014979;28;20056;-77
2023/06/23 13:51:05;;;;;;;1.25;0.70;;;;;;;;;;5032856;28;20447;-77
2023/06/23 13:53:32;;;;;;;2.05;0.80;;;;;;;;;;5015082;28;20811;-77
2023/06/23 13:55:58;;;;;;;1.88;0.50;;;;;;;;;;5032770;28;20087;-77
2023/06/23 13:58:24;;;;;;;2.95;0.70;;;;;;;;;;5032310;28;20022;-77
2023/06/23 14:00:52;;;;;;;2.00;0.95;;;;;;;;;;5033017;28;20388;-77
2023/06/23 14:03:18;;;;;;;1.85;0.30;;;;;;;;;;5033461;28;20372;-77
2023/06/23 14:05:44;;;;;;;1.60;0.45;;;;;;;;;;5034696;28;20025;-78
2023/06/23 14:08:10;;;;;;;1.30;0.50;;;;;;;;;;5032474;28;20033;-78
2023/06/23 14:10:36;;;;;;;2.72;0.50;;;;;;;;;;5035873;28;20034;-78
2023/06/23 14:13:02;;;;;;;0.38;0.30;;;;;;;;;;5039034;28;20376;-77
2023/06/23 14:15:28;;;;;;;0.68;0.40;;;;;;;;;;5024559;28;20030;-77
2023/06/23 14:17:54;;;;;;;2.80;0.75;;;;;;;;;;5018164;28;20025;-78
2023/06/23 14:20:20;;;;;;;6.00;0.73;;;;;;;;;;5017352;28;20093;-78
2023/06/23 14:22:46;;;;;;;1.95;0.68;;;;;;;;;;4998484;28;20049;-77
2023/06/23 14:25:12;;;;;;;1.23;0.50;;;;;;;;;;5016736;28;20492;-77
2023/06/23 14:27:38;;;;;;;2.35;0.40;;;;;;;;;;5022295;28;20029;-77
2023/06/23 14:30:05;;;;;;;0.45;0.38;;;;;;;;;;5025267;28;20034;-79
2023/06/23 14:32:31;;;;;;;0.98;0.40;;;;;;;;;;5015604;28;20448;-77
2023/06/23 14:34:57;;;;;;;0.77;0.30;;;;;;;;;;5016538;28;20491;-77
2023/06/23 14:37:23;;;;;;;0.38;0.30;;;;;;;;;;4997877;28;20026;-78
2023/06/23 14:39:49;;;;;;;2.33;0.38;;;;;;;;;;5015604;28;20026;-77
2023/06/23 14:42:15;;;;;;;1.95;0.50;;;;;;;;;;4998327;28;20032;-77